createdAt,value
2018-10-11T00:00:50.438Z,0.217
2018-10-11T00:02:50.657Z,0.239
2018-10-11T00:04:50.329Z,0.245
2018-10-11T00:06:50.657Z,0.245
2018-10-11T00:08:49.924Z,0.171
2018-10-11T00:10:50.101Z,0.182
2018-10-11T00:12:50.276Z,0.217
2018-10-11T00:14:50.406Z,0.205
2018-10-11T00:16:49.818Z,0.211
2018-10-11T00:18:49.989Z,0.200
2018-10-11T00:20:50.197Z,0.262
2018-10-11T00:22:50.415Z,0.239
2018-10-11T00:24:50.635Z,0.182
2018-10-11T00:26:50.048Z,0.274
2018-10-11T00:28:50.207Z,0.200
2018-10-11T00:30:51.077Z,0.239
2018-10-11T00:32:50.636Z,0.251
2018-10-11T00:34:50.257Z,0.211
2018-10-11T00:36:50.666Z,0.211
2018-10-11T00:38:49.825Z,0.291
2018-10-11T00:40:50.049Z,0.234
2018-10-11T00:42:50.211Z,0.211
2018-10-11T00:44:50.447Z,0.205
2018-10-11T00:46:49.828Z,0.205
2018-10-11T00:48:50.021Z,0.217
2018-10-11T00:50:50.201Z,0.217
2018-10-11T00:52:50.372Z,0.217
2018-10-11T00:54:50.618Z,0.245
2018-10-11T00:56:50.304Z,0.200
2018-10-11T00:58:50.420Z,0.239
2018-10-11T01:00:50.680Z,0.245
2018-10-11T01:02:49.803Z,0.200
2018-10-11T01:04:50.332Z,0.200
2018-10-11T01:06:50.654Z,0.222
2018-10-11T01:08:49.849Z,0.217
2018-10-11T01:10:50.181Z,0.188
2018-10-11T01:12:50.368Z,0.182
2018-10-11T01:14:50.550Z,0.182
2018-10-11T01:16:50.020Z,0.182
2018-10-11T01:18:50.176Z,0.268
2018-10-11T01:20:50.388Z,0.257
2018-10-11T01:22:50.678Z,0.200
2018-10-11T01:24:49.953Z,0.239
2018-10-11T01:26:50.282Z,0.239
2018-10-11T01:28:50.544Z,0.251
2018-10-11T01:30:49.930Z,0.205
2018-10-11T01:32:50.133Z,0.228
2018-10-11T01:34:50.527Z,0.182
2018-10-11T01:36:49.916Z,0.205
2018-10-11T01:38:50.942Z,0.234
2018-10-11T01:40:50.457Z,0.222
2018-10-11T01:42:50.640Z,0.268
2018-10-11T01:44:49.897Z,0.205
2018-10-11T01:46:50.268Z,0.245
2018-10-11T01:48:50.421Z,0.148
2018-10-11T01:50:50.688Z,0.194
2018-10-11T01:52:49.945Z,0.200
2018-10-11T01:54:50.253Z,0.200
2018-10-11T01:56:51.421Z,0.234
2018-10-11T01:58:49.990Z,0.182
2018-10-11T02:00:50.128Z,0.234
2018-10-11T02:02:50.363Z,0.211
2018-10-11T02:04:49.834Z,0.211
2018-10-11T02:06:50.092Z,0.211
2018-10-11T02:08:50.355Z,0.239
2018-10-11T02:10:50.506Z,0.239
2018-10-11T02:12:49.820Z,0.217
2018-10-11T02:14:50.029Z,0.296
2018-10-11T02:16:50.499Z,0.211
2018-10-11T02:18:50.612Z,0.217
2018-10-11T02:20:49.902Z,0.188
2018-10-11T02:22:50.166Z,0.239
2018-10-11T02:24:50.387Z,0.239
2018-10-11T02:26:49.805Z,0.143
2018-10-11T02:28:50.009Z,0.217
2018-10-11T02:30:50.413Z,0.171
2018-10-11T02:32:50.656Z,0.268
2018-10-11T02:34:50.524Z,0.245
2018-10-11T02:36:50.002Z,0.177
2018-10-11T02:38:50.353Z,0.234
2018-10-11T02:40:50.591Z,0.234
2018-10-11T02:42:49.785Z,0.251
2018-10-11T02:44:50.004Z,0.245
2018-10-11T02:46:50.290Z,0.228
2018-10-11T02:48:50.498Z,0.234
2018-10-11T02:50:50.753Z,0.239
2018-10-11T02:52:49.951Z,0.205
2018-10-11T02:54:50.175Z,0.228
2018-10-11T02:56:50.525Z,0.251
2018-10-11T02:58:49.807Z,0.234
2018-10-11T03:00:50.111Z,0.205
2018-10-11T03:02:50.287Z,0.291
2018-10-11T03:04:50.778Z,0.222
2018-10-11T03:06:50.083Z,0.205
2018-10-11T03:08:50.222Z,0.188
2018-10-11T03:10:50.447Z,0.239
2018-10-11T03:12:50.622Z,0.239
2018-10-11T03:14:50.032Z,0.245
2018-10-11T03:16:50.422Z,0.160
2018-10-11T03:18:50.591Z,0.234
2018-10-11T03:20:50.718Z,0.234
2018-10-11T03:22:50.005Z,0.160
2018-10-11T03:24:50.194Z,0.154
2018-10-11T03:26:50.617Z,0.177
2018-10-11T03:28:49.884Z,0.239
2018-10-11T03:30:50.035Z,0.222
2018-10-11T03:32:50.176Z,0.182
2018-10-11T03:34:49.841Z,0.182
2018-10-11T03:36:50.300Z,0.182
2018-10-11T03:38:50.577Z,0.200
2018-10-11T03:40:49.805Z,0.296
2018-10-11T03:42:49.948Z,0.165
2018-10-11T03:44:50.052Z,0.245
2018-10-11T03:46:50.407Z,0.245
2018-10-11T03:48:50.553Z,0.274
2018-10-11T03:50:50.683Z,0.234
2018-10-11T03:52:49.862Z,0.251
2018-10-11T03:54:50.071Z,0.154
2018-10-11T03:56:50.423Z,0.228
2018-10-11T03:58:50.729Z,0.194
2018-10-11T04:00:49.914Z,0.268
2018-10-11T04:02:50.175Z,0.177
2018-10-11T04:04:50.759Z,0.274
2018-10-11T04:06:50.159Z,0.222
2018-10-11T04:08:50.396Z,0.165
2018-10-11T04:10:50.659Z,0.274
2018-10-11T04:12:49.813Z,0.285
2018-10-11T04:14:49.983Z,0.137
2018-10-11T04:16:50.419Z,0.228
2018-10-11T04:18:50.633Z,0.211
2018-10-11T04:20:50.761Z,0.205
2018-10-11T04:22:49.961Z,0.200
2018-10-11T04:24:50.140Z,0.194
2018-10-11T04:26:50.263Z,0.194
2018-10-11T04:28:50.408Z,0.188
2018-10-11T04:30:50.586Z,0.177
2018-10-11T04:32:50.711Z,0.188
2018-10-11T04:34:50.300Z,0.120
2018-10-11T04:36:50.711Z,0.217
2018-10-11T04:38:50.036Z,0.257
2018-10-11T04:40:50.155Z,0.302
2018-10-11T04:42:51.167Z,0.279
2018-10-11T04:44:50.751Z,0.205
2018-10-11T04:46:50.207Z,0.177
2018-10-11T04:48:50.326Z,0.251
2018-10-11T04:50:50.599Z,0.239
2018-10-11T04:52:50.706Z,0.234
2018-10-11T04:54:49.978Z,0.245
2018-10-11T04:56:50.337Z,0.217
2018-10-11T04:58:50.433Z,0.222
2018-10-11T05:00:50.568Z,0.296
2018-10-11T05:02:50.661Z,0.222
2018-10-11T05:04:50.280Z,0.234
2018-10-11T05:06:49.846Z,0.211
2018-10-11T05:08:50.098Z,0.251
2018-10-11T05:10:50.247Z,0.171
2018-10-11T05:12:50.495Z,0.171
2018-10-11T05:14:50.657Z,0.200
2018-10-11T05:16:49.994Z,0.211
2018-10-11T05:18:50.149Z,0.182
2018-10-11T05:20:50.323Z,0.239
2018-10-11T05:22:50.538Z,0.188
2018-10-11T05:24:50.735Z,0.222
2018-10-11T05:26:50.265Z,0.251
2018-10-11T05:28:50.510Z,0.217
2018-10-11T05:30:49.863Z,0.257
2018-10-11T05:32:50.071Z,0.228
2018-10-11T05:34:49.949Z,0.194
2018-10-11T05:36:49.927Z,0.234
2018-10-11T05:38:50.272Z,0.177
2018-10-11T05:40:50.407Z,0.148
2018-10-11T05:42:50.597Z,0.279
2018-10-11T05:44:49.885Z,0.228
2018-10-11T05:46:50.265Z,0.239
2018-10-11T05:48:50.603Z,0.200
2018-10-11T05:50:49.784Z,0.188
2018-10-11T05:52:49.992Z,0.194
2018-10-11T05:54:50.248Z,0.205
2018-10-11T05:56:51.438Z,0.143
2018-10-11T05:58:49.859Z,0.228
2018-10-11T06:00:50.028Z,0.194
2018-10-11T06:02:50.207Z,0.228
2018-10-11T06:04:49.916Z,0.205
2018-10-11T06:06:50.200Z,0.205
2018-10-11T06:08:50.354Z,0.200
2018-10-11T06:10:50.505Z,0.165
2018-10-11T06:12:50.771Z,0.234
2018-10-11T06:14:49.910Z,0.188
2018-10-11T06:16:50.233Z,0.234
2018-10-11T06:18:50.347Z,0.222
2018-10-11T06:20:50.485Z,0.200
2018-10-11T06:22:50.706Z,0.194
2018-10-11T06:24:50.372Z,0.251
2018-10-11T06:26:50.156Z,0.222
2018-10-11T06:28:50.338Z,0.211
2018-10-11T06:30:50.646Z,0.211
2018-10-11T06:32:49.933Z,0.217
2018-10-11T06:34:50.424Z,0.188
2018-10-11T06:36:49.821Z,0.182
2018-10-11T06:38:49.980Z,0.182
2018-10-11T06:40:50.341Z,0.234
2018-10-11T06:42:50.639Z,0.211
2018-10-11T06:44:49.795Z,0.274
2018-10-11T06:46:50.126Z,0.188
2018-10-11T06:48:50.282Z,0.148
2018-10-11T06:50:50.483Z,0.200
2018-10-11T06:52:49.842Z,0.182
2018-10-11T06:54:50.222Z,0.217
2018-10-11T06:56:50.594Z,0.205
2018-10-11T06:58:49.801Z,0.211
2018-10-11T07:00:50.223Z,0.200
2018-10-11T07:02:50.390Z,0.262
2018-10-11T07:04:49.868Z,0.217
2018-10-11T07:06:50.169Z,0.148
2018-10-11T07:08:50.369Z,0.171
2018-10-11T07:10:50.613Z,0.154
2018-10-11T07:12:50.758Z,0.262
2018-10-11T07:14:49.922Z,0.228
2018-10-11T07:16:50.239Z,0.097
2018-10-11T07:18:50.465Z,0.285
2018-10-11T07:20:50.644Z,0.228
2018-10-11T07:22:49.890Z,0.125
2018-10-11T07:24:50.036Z,0.239
2018-10-11T07:26:50.401Z,0.205
2018-10-11T07:28:50.620Z,0.205
2018-10-11T07:30:49.879Z,0.228
2018-10-11T07:32:50.105Z,0.188
2018-10-11T07:34:51.327Z,0.177
2018-10-11T07:36:49.957Z,0.217
2018-10-11T07:38:50.154Z,0.165
2018-10-11T07:40:50.610Z,0.194
2018-10-11T07:42:49.884Z,0.148
2018-10-11T07:44:50.070Z,0.182
2018-10-11T07:46:50.591Z,0.200
2018-10-11T07:48:49.783Z,0.245
2018-10-11T07:50:50.057Z,0.222
2018-10-11T07:52:50.585Z,0.205
2018-10-11T07:54:49.960Z,0.234
2018-10-11T07:56:50.392Z,0.217
2018-10-11T07:58:50.511Z,0.194
2018-10-11T08:00:50.748Z,0.177
2018-10-11T08:02:49.959Z,0.205
2018-10-11T08:04:50.480Z,0.182
2018-10-11T08:06:49.891Z,0.154
2018-10-11T08:08:50.356Z,0.177
2018-10-11T08:10:51.655Z,0.245
2018-10-11T08:12:50.292Z,0.217
2018-10-11T08:14:50.458Z,0.222
2018-10-11T08:16:51.308Z,0.143
2018-10-11T08:18:50.515Z,0.160
2018-10-11T08:20:50.038Z,0.194
2018-10-11T08:22:50.210Z,0.160
2018-10-11T08:24:51.237Z,0.154
2018-10-11T08:26:50.935Z,0.182
2018-10-11T08:28:50.432Z,0.228
2018-10-11T08:30:50.595Z,0.125
2018-10-11T08:32:50.542Z,0.257
2018-10-11T08:34:50.678Z,0.205
2018-10-11T08:36:50.249Z,0.154
2018-10-11T08:38:50.513Z,0.188
2018-10-11T08:40:50.740Z,0.194
2018-10-11T08:42:49.946Z,0.160
2018-10-11T08:44:50.150Z,0.285
2018-10-11T08:46:50.515Z,0.160
2018-10-11T08:48:50.596Z,0.245
2018-10-11T08:50:51.286Z,0.234
2018-10-11T08:52:49.785Z,0.171
2018-10-11T08:54:50.453Z,0.205
2018-10-11T08:56:49.961Z,0.154
2018-10-11T08:58:50.137Z,0.160
2018-10-11T09:00:50.323Z,0.194
2018-10-11T09:02:50.637Z,0.274
2018-10-11T09:04:50.353Z,0.200
2018-10-11T09:06:50.757Z,0.148
2018-10-11T09:08:49.930Z,0.177
2018-10-11T09:10:50.371Z,0.188
2018-10-11T09:12:49.881Z,0.222
2018-10-11T09:14:50.146Z,0.182
2018-10-11T09:16:50.493Z,0.205
2018-10-11T09:18:50.765Z,0.182
2018-10-11T09:20:49.937Z,0.177
2018-10-11T09:22:50.154Z,0.177
2018-10-11T09:24:50.292Z,0.177
2018-10-11T09:26:50.750Z,0.171
2018-10-11T09:28:50.022Z,0.200
2018-10-11T09:30:50.221Z,0.160
2018-10-11T09:32:50.636Z,0.177
2018-10-11T09:34:50.598Z,0.160
2018-10-11T09:36:50.399Z,0.188
2018-10-11T09:38:50.569Z,0.131
2018-10-11T09:40:49.885Z,0.268
2018-10-11T09:42:49.992Z,0.143
2018-10-11T09:44:50.387Z,0.171
2018-10-11T09:46:50.770Z,0.103
2018-10-11T09:48:50.832Z,0.165
2018-10-11T09:50:50.673Z,0.154
2018-10-11T09:52:49.896Z,0.234
2018-10-11T09:54:50.573Z,0.137
2018-10-11T09:56:50.351Z,0.154
2018-10-11T09:58:50.260Z,0.160
2018-10-11T10:00:50.473Z,0.080
2018-10-11T10:02:49.998Z,0.148
2018-10-11T10:04:50.715Z,0.194
2018-10-11T10:06:50.109Z,0.137
2018-10-11T10:08:50.352Z,0.171
2018-10-11T10:10:50.537Z,0.108
2018-10-11T10:12:50.731Z,0.245
2018-10-11T10:14:49.958Z,0.211
2018-10-11T10:16:50.255Z,0.217
2018-10-11T10:18:50.394Z,0.177
2018-10-11T10:20:50.610Z,0.205
2018-10-11T10:22:50.742Z,0.217
2018-10-11T10:24:50.011Z,0.165
2018-10-11T10:26:50.921Z,0.114
2018-10-11T10:28:50.472Z,0.160
2018-10-11T10:30:50.732Z,0.200
2018-10-11T10:32:49.889Z,0.194
2018-10-11T10:34:50.432Z,0.194
2018-10-11T10:36:49.798Z,0.177
2018-10-11T10:38:49.969Z,0.177
2018-10-11T10:40:50.224Z,0.148
2018-10-11T10:42:50.405Z,0.188
2018-10-11T10:44:50.654Z,0.234
2018-10-11T10:46:50.061Z,0.160
2018-10-11T10:48:50.566Z,0.222
2018-10-11T10:50:49.962Z,0.154
2018-10-11T10:52:50.211Z,0.200
2018-10-11T10:54:50.424Z,0.131
2018-10-11T10:56:49.814Z,0.148
2018-10-11T10:58:50.008Z,0.154
2018-10-11T11:00:50.125Z,0.143
2018-10-11T11:02:50.287Z,0.160
2018-10-11T11:04:50.675Z,0.205
2018-10-11T11:06:50.019Z,0.177
2018-10-11T11:08:50.156Z,0.177
2018-10-11T11:10:50.347Z,0.114
2018-10-11T11:12:50.458Z,0.171
2018-10-11T11:14:50.722Z,0.194
2018-10-11T11:16:50.077Z,0.137
2018-10-11T11:18:50.669Z,0.200
2018-10-11T11:20:50.041Z,0.188
2018-10-11T11:22:50.180Z,0.200
2018-10-11T11:24:50.292Z,0.211
2018-10-11T11:26:50.632Z,0.143
2018-10-11T11:28:50.765Z,0.205
2018-10-11T11:30:50.081Z,0.120
2018-10-11T11:32:50.389Z,0.188
2018-10-11T11:34:50.048Z,0.291
2018-10-11T11:36:50.436Z,0.228
2018-10-11T11:38:50.613Z,0.228
2018-10-11T11:40:49.949Z,0.171
2018-10-11T11:42:50.134Z,0.114
2018-10-11T11:44:50.316Z,0.205
2018-10-11T11:46:49.821Z,0.125
2018-10-11T11:48:50.180Z,0.131
2018-10-11T11:50:50.538Z,0.171
2018-10-11T11:52:50.012Z,0.165
2018-10-11T11:54:50.316Z,0.114
2018-10-11T11:56:50.626Z,0.200
2018-10-11T11:58:49.801Z,0.177
2018-10-11T12:00:50.110Z,0.165
2018-10-11T12:02:51.445Z,0.108
2018-10-11T12:04:50.487Z,0.000
2018-10-11T12:06:49.955Z,0.000
2018-10-11T12:08:50.190Z,0.000
2018-10-11T12:10:50.894Z,0.000
2018-10-11T12:12:50.441Z,0.000
2018-10-11T12:14:50.603Z,0.000
2018-10-11T12:16:50.169Z,0.000
2018-10-11T12:18:49.823Z,0.000
2018-10-11T12:20:50.106Z,0.000
2018-10-11T12:22:50.321Z,0.000
2018-10-11T12:24:50.868Z,0.000
2018-10-11T12:26:50.436Z,0.000
2018-10-11T12:28:50.956Z,0.000
2018-10-11T12:30:50.445Z,0.000
2018-10-11T12:32:50.733Z,0.000
2018-10-11T12:34:50.397Z,0.000
2018-10-11T12:36:49.880Z,0.000
2018-10-11T12:38:51.038Z,0.000
2018-10-11T12:40:50.666Z,0.000
2018-10-11T12:42:50.016Z,0.000
2018-10-11T12:44:50.223Z,0.000
2018-10-11T12:46:50.620Z,0.000
2018-10-11T12:48:49.920Z,0.000
2018-10-11T12:50:50.160Z,0.000
2018-10-11T12:52:50.515Z,0.000
2018-10-11T12:54:50.915Z,0.000
2018-10-11T12:56:51.111Z,0.000
2018-10-11T12:58:50.641Z,0.000
2018-10-11T13:00:50.315Z,0.000
2018-10-11T13:02:50.602Z,0.000
2018-10-11T13:04:50.581Z,0.000
2018-10-11T13:06:50.138Z,0.000
2018-10-11T13:08:50.512Z,0.000
2018-10-11T13:10:50.680Z,0.000
2018-10-11T13:12:49.956Z,0.000
2018-10-11T13:14:50.177Z,0.000
2018-10-11T13:16:50.586Z,0.000
2018-10-11T13:18:49.854Z,0.000
2018-10-11T13:20:50.045Z,0.000
2018-10-11T13:22:50.678Z,0.000
2018-10-11T13:24:50.175Z,0.000
2018-10-11T13:26:50.488Z,0.000
2018-10-11T13:28:51.230Z,0.000
2018-10-11T13:30:50.352Z,0.000
2018-10-11T13:32:50.588Z,0.000
2018-10-11T13:34:51.198Z,0.000
2018-10-11T13:36:50.349Z,0.000
2018-10-11T13:38:50.545Z,0.000
2018-10-11T13:41:04.033Z,0.000
2018-10-11T13:42:49.849Z,0.000
2018-10-11T13:44:50.039Z,0.000
2018-10-11T13:46:50.486Z,0.000
2018-10-11T13:48:50.621Z,0.000
2018-10-11T13:50:50.209Z,0.000
2018-10-11T13:52:50.595Z,0.000
2018-10-11T13:54:50.031Z,0.000
2018-10-11T13:57:03.561Z,0.000
2018-10-11T13:58:50.712Z,0.000
2018-10-11T14:00:50.448Z,0.000
2018-10-11T14:02:50.372Z,0.000
2018-10-11T14:04:50.239Z,0.000
2018-10-11T14:06:50.047Z,0.000
2018-10-11T14:08:50.304Z,0.000
2018-10-11T14:10:50.778Z,0.000
2018-10-11T14:12:50.059Z,0.000
2018-10-11T14:14:50.208Z,0.000
2018-10-11T14:16:50.469Z,0.000
2018-10-11T14:18:50.681Z,0.000
2018-10-11T14:20:50.067Z,0.000
2018-10-11T14:22:50.221Z,0.000
2018-10-11T14:24:50.393Z,0.000
2018-10-11T14:26:49.899Z,0.000
2018-10-11T14:28:50.218Z,0.000
2018-10-11T14:30:50.478Z,0.000
2018-10-11T14:32:50.678Z,0.000
2018-10-11T14:34:50.323Z,0.000
2018-10-11T14:36:52.040Z,0.131
2018-10-11T14:38:50.775Z,0.131
2018-10-11T14:40:49.992Z,0.000
2018-10-11T14:42:50.225Z,0.000
2018-10-11T14:44:50.482Z,0.000
2018-10-11T14:46:49.918Z,0.000
2018-10-11T14:48:50.395Z,0.000
2018-10-11T14:50:50.876Z,0.148
2018-10-11T14:52:50.230Z,0.114
2018-10-11T14:54:50.491Z,0.143
2018-10-11T14:56:49.981Z,0.148
2018-10-11T14:58:50.204Z,0.148
2018-10-11T15:00:50.560Z,0.182
2018-10-11T15:02:51.447Z,0.091
2018-10-11T15:04:50.256Z,0.125
2018-10-11T15:06:50.618Z,0.160
2018-10-11T15:08:49.897Z,0.154
2018-10-11T15:10:51.574Z,0.245
2018-10-11T15:12:50.512Z,0.200
2018-10-11T15:14:50.797Z,0.188
2018-10-11T15:16:50.116Z,0.160
2018-10-11T15:18:50.305Z,0.217
2018-10-11T15:20:50.482Z,0.177
2018-10-11T15:22:49.972Z,0.131
2018-10-11T15:24:50.210Z,0.171
2018-10-11T15:26:50.545Z,0.103
2018-10-11T15:28:50.775Z,0.188
2018-10-11T15:30:50.496Z,0.171
2018-10-11T15:32:49.906Z,0.182
2018-10-11T15:34:50.702Z,0.160
2018-10-11T15:36:50.146Z,0.131
2018-10-11T15:38:50.375Z,0.194
2018-10-11T15:40:50.603Z,0.148
2018-10-11T15:42:49.788Z,0.154
2018-10-11T15:44:50.020Z,0.194
2018-10-11T15:46:51.085Z,0.194
2018-10-11T15:48:50.613Z,0.114
2018-10-11T15:50:49.808Z,0.217
2018-10-11T15:52:49.962Z,0.074
2018-10-11T15:54:50.131Z,0.165
2018-10-11T15:56:50.634Z,0.188
2018-10-11T15:58:49.807Z,0.143
2018-10-11T16:00:49.974Z,0.160
2018-10-11T16:02:50.148Z,0.188
2018-10-11T16:04:50.544Z,0.165
2018-10-11T16:06:50.034Z,0.125
2018-10-11T16:08:50.649Z,0.177
2018-10-11T16:10:49.966Z,0.108
2018-10-11T16:12:50.057Z,0.177
2018-10-11T16:14:50.162Z,0.154
2018-10-11T16:16:50.591Z,0.165
2018-10-11T16:18:50.773Z,0.194
2018-10-11T16:20:50.153Z,0.080
2018-10-11T16:22:50.312Z,0.103
2018-10-11T16:24:51.325Z,0.160
2018-10-11T16:26:50.228Z,0.137
2018-10-11T16:28:50.426Z,0.165
2018-10-11T16:30:50.616Z,0.200
2018-10-11T16:32:49.839Z,0.165
2018-10-11T16:34:50.342Z,0.194
2018-10-11T16:36:50.651Z,0.148
2018-10-11T16:38:49.793Z,0.148
2018-10-11T16:40:50.243Z,0.188
2018-10-11T16:42:50.475Z,0.143
2018-10-11T16:44:50.717Z,0.154
2018-10-11T16:46:50.135Z,0.137
2018-10-11T16:48:50.282Z,0.137
2018-10-11T16:50:50.507Z,0.188
2018-10-11T16:52:49.813Z,0.148
2018-10-11T16:54:50.021Z,0.182
2018-10-11T16:56:50.361Z,0.188
2018-10-11T16:58:50.557Z,0.171
2018-10-11T17:00:50.656Z,0.125
2018-10-11T17:02:49.899Z,0.182
2018-10-11T17:04:50.339Z,0.160
2018-10-11T17:06:50.623Z,0.143
2018-10-11T17:08:49.791Z,0.188
2018-10-11T17:10:50.012Z,0.160
2018-10-11T17:12:50.210Z,0.160
2018-10-11T17:14:50.360Z,0.160
2018-10-11T17:16:50.807Z,0.086
2018-10-11T17:18:50.006Z,0.143
2018-10-11T17:20:50.329Z,0.177
2018-10-11T17:22:50.471Z,0.165
2018-10-11T17:24:50.643Z,0.188
2018-10-11T17:26:50.094Z,0.177
2018-10-11T17:28:50.212Z,0.205
2018-10-11T17:30:50.437Z,0.171
2018-10-11T17:32:50.585Z,0.143
2018-10-11T17:34:50.129Z,0.182
2018-10-11T17:36:50.412Z,0.125
2018-10-11T17:38:50.534Z,0.177
2018-10-11T17:40:49.793Z,0.171
2018-10-11T17:42:50.122Z,0.125
2018-10-11T17:44:50.304Z,0.239
2018-10-11T17:46:50.690Z,0.200
2018-10-11T17:48:49.902Z,0.205
2018-10-11T17:50:50.086Z,0.268
2018-10-11T17:52:50.387Z,0.154
2018-10-11T17:54:50.626Z,0.251
2018-10-11T17:56:50.980Z,0.222
2018-10-11T17:58:50.301Z,0.165
2018-10-11T18:00:50.476Z,0.171
2018-10-11T18:02:49.812Z,0.171
2018-10-11T18:04:50.304Z,0.154
2018-10-11T18:06:49.857Z,0.103
2018-10-11T18:08:49.988Z,0.217
2018-10-11T18:10:50.145Z,0.188
2018-10-11T18:12:50.253Z,0.194
2018-10-11T18:14:50.434Z,0.200
2018-10-11T18:16:49.848Z,0.171
2018-10-11T18:18:50.050Z,0.211
2018-10-11T18:20:50.192Z,0.160
2018-10-11T18:22:50.413Z,0.177
2018-10-11T18:24:50.611Z,0.125
2018-10-11T18:26:50.077Z,0.194
2018-10-11T18:28:50.342Z,0.177
2018-10-11T18:30:50.547Z,0.160
2018-10-11T18:32:50.739Z,0.114
2018-10-11T18:34:50.393Z,0.148
2018-10-11T18:36:49.853Z,0.200
2018-10-11T18:38:50.042Z,0.188
2018-10-11T18:40:50.168Z,0.160
2018-10-11T18:42:50.308Z,0.200
2018-10-11T18:44:51.057Z,0.120
2018-10-11T18:46:50.056Z,0.228
2018-10-11T18:48:50.200Z,0.154
2018-10-11T18:50:50.897Z,0.154
2018-10-11T18:52:50.261Z,0.177
2018-10-11T18:54:50.416Z,0.177
2018-10-11T18:56:49.831Z,0.200
2018-10-11T18:58:49.982Z,0.194
2018-10-11T19:00:50.132Z,0.182
2018-10-11T19:02:50.324Z,0.154
2018-10-11T19:04:49.970Z,0.125
2018-10-11T19:06:50.240Z,0.165
2018-10-11T19:08:50.387Z,0.200
2018-10-11T19:10:50.567Z,0.205
2018-10-11T19:12:50.715Z,0.188
2018-10-11T19:14:49.934Z,0.222
2018-10-11T19:16:50.268Z,0.194
2018-10-11T19:18:50.520Z,0.148
2018-10-11T19:20:51.116Z,0.228
2018-10-11T19:22:50.535Z,0.245
2018-10-11T19:24:50.682Z,0.165
2018-10-11T19:26:50.013Z,0.143
2018-10-11T19:28:50.114Z,0.143
2018-10-11T19:30:50.635Z,0.148
2018-10-11T19:32:49.964Z,0.194
2018-10-11T19:34:50.432Z,0.171
2018-10-11T19:36:49.913Z,0.177
2018-10-11T19:38:50.039Z,0.274
2018-10-11T19:40:50.149Z,0.171
2018-10-11T19:42:50.346Z,0.234
2018-10-11T19:44:50.517Z,0.194
2018-10-11T19:46:49.913Z,0.194
2018-10-11T19:48:49.999Z,0.165
2018-10-11T19:50:50.225Z,0.160
2018-10-11T19:52:50.452Z,0.137
2018-10-11T19:54:50.591Z,0.143
2018-10-11T19:56:49.950Z,0.188
2018-10-11T19:58:50.126Z,0.222
2018-10-11T20:00:50.410Z,0.222
2018-10-11T20:02:49.793Z,0.194
2018-10-11T20:04:50.432Z,0.211
2018-10-11T20:06:50.717Z,0.177
2018-10-11T20:08:49.888Z,0.148
2018-10-11T20:10:50.049Z,0.200
2018-10-11T20:12:50.234Z,0.188
2018-10-11T20:14:50.376Z,0.200
2018-10-11T20:16:50.687Z,0.137
2018-10-11T20:18:49.905Z,0.194
2018-10-11T20:20:50.108Z,0.211
2018-10-11T20:22:50.262Z,0.205
2018-10-11T20:24:50.496Z,0.228
2018-10-11T20:26:49.961Z,0.148
2018-10-11T20:28:50.098Z,0.194
2018-10-11T20:30:50.309Z,0.228
2018-10-11T20:32:50.566Z,0.188
2018-10-11T20:34:50.278Z,0.177
2018-10-11T20:36:50.761Z,0.200
2018-10-11T20:38:49.894Z,0.217
2018-10-11T20:40:50.006Z,0.194
2018-10-11T20:42:50.171Z,0.205
2018-10-11T20:44:50.443Z,0.177
2018-10-11T20:46:50.017Z,0.188
2018-10-11T20:48:50.186Z,0.182
2018-10-11T20:50:50.391Z,0.171
2018-10-11T20:52:50.633Z,0.262
2018-10-11T20:54:49.794Z,0.228
2018-10-11T20:56:50.065Z,0.200
2018-10-11T20:58:50.203Z,0.200
2018-10-11T21:00:50.425Z,0.188
2018-10-11T21:02:50.644Z,0.211
2018-10-11T21:04:50.288Z,0.222
2018-10-11T21:06:50.657Z,0.182
2018-10-11T21:08:49.805Z,0.262
2018-10-11T21:10:49.956Z,0.262
2018-10-11T21:12:50.132Z,0.160
2018-10-11T21:14:50.280Z,0.251
2018-10-11T21:16:50.605Z,0.239
2018-10-11T21:18:49.794Z,0.165
2018-10-11T21:20:50.053Z,0.194
2018-10-11T21:22:50.174Z,0.194
2018-10-11T21:24:50.343Z,0.177
2018-10-11T21:26:50.706Z,0.171
2018-10-11T21:28:49.870Z,0.279
2018-10-11T21:30:50.008Z,0.234
2018-10-11T21:32:50.163Z,0.257
2018-10-11T21:34:50.650Z,0.279
2018-10-11T21:36:50.034Z,0.205
2018-10-11T21:38:50.222Z,0.188
2018-10-11T21:40:50.324Z,0.251
2018-10-11T21:42:50.620Z,0.268
2018-10-11T21:44:50.754Z,0.171
2018-10-11T21:46:50.118Z,0.211
2018-10-11T21:48:50.370Z,0.182
2018-10-11T21:50:50.551Z,0.222
2018-10-11T21:52:51.155Z,0.188
2018-10-11T21:54:50.484Z,0.205
2018-10-11T21:56:50.077Z,0.245
2018-10-11T21:58:50.238Z,0.245
2018-10-11T22:00:50.388Z,0.217
2018-10-11T22:02:50.347Z,0.200
2018-10-11T22:04:49.922Z,0.154
2018-10-11T22:06:50.321Z,0.262
2018-10-11T22:08:50.569Z,0.182
2018-10-11T22:10:50.677Z,0.200
2018-10-11T22:12:49.893Z,0.165
2018-10-11T22:14:51.187Z,0.194
2018-10-11T22:16:50.361Z,0.148
2018-10-11T22:18:50.466Z,0.148
2018-10-11T22:20:51.039Z,0.154
2018-10-11T22:22:50.467Z,0.222
2018-10-11T22:24:50.787Z,0.188
2018-10-11T22:26:50.164Z,0.222
2018-10-11T22:28:50.305Z,0.205
2018-10-11T22:30:50.410Z,0.182
2018-10-11T22:32:50.658Z,0.205
2018-10-11T22:34:50.196Z,0.245
2018-10-11T22:36:50.604Z,0.222
2018-10-11T22:38:49.815Z,0.217
2018-10-11T22:40:49.968Z,0.177
2018-10-11T22:42:50.306Z,0.194
2018-10-11T22:44:50.455Z,0.257
2018-10-11T22:46:49.932Z,0.211
2018-10-11T22:48:50.067Z,0.257
2018-10-11T22:50:50.296Z,0.194
2018-10-11T22:52:50.439Z,0.200
2018-10-11T22:54:50.688Z,0.200
2018-10-11T22:56:50.029Z,0.302
2018-10-11T22:58:50.274Z,0.279
2018-10-11T23:00:50.442Z,0.177
2018-10-11T23:02:50.710Z,0.165
2018-10-11T23:04:50.400Z,0.222
2018-10-11T23:06:50.739Z,0.194
2018-10-11T23:08:49.892Z,0.205
2018-10-11T23:10:50.077Z,0.211
2018-10-11T23:12:50.254Z,0.217
2018-10-11T23:14:51.310Z,0.200
2018-10-11T23:16:49.945Z,0.234
2018-10-11T23:18:50.137Z,0.188
2018-10-11T23:20:50.279Z,0.257
2018-10-11T23:22:50.428Z,0.211
2018-10-11T23:24:50.657Z,0.194
2018-10-11T23:26:50.092Z,0.200
2018-10-11T23:28:50.284Z,0.182
2018-10-11T23:30:50.470Z,0.200
2018-10-11T23:32:50.622Z,0.177
2018-10-11T23:34:50.389Z,0.182
2018-10-11T23:36:49.909Z,0.205
2018-10-11T23:38:50.068Z,0.165
2018-10-11T23:40:50.260Z,0.188
2018-10-11T23:42:50.352Z,0.205
2018-10-11T23:44:50.522Z,0.182
2018-10-11T23:46:50.049Z,0.211
2018-10-11T23:48:50.262Z,0.200
2018-10-11T23:50:50.444Z,0.245
2018-10-11T23:52:50.613Z,0.205
2018-10-11T23:54:49.910Z,0.205
2018-10-11T23:56:50.240Z,0.205
2018-10-11T23:58:50.503Z,0.222
